sensor_id;sensor_type;location;lat;lon;timestamp;P1;durP1;ratioP1;P2;durP2;ratioP2
4359;SDS011;2193;47.980;7.660;2023-05-31T00:02:23;4.73;;;2.83;;
4359;SDS011;2193;47.980;7.660;2023-05-31T00:04:49;6.00;;;2.90;;
4359;SDS011;2193;47.980;7.660;2023-05-31T00:07:14;10.30;;;3.03;;
4359;SDS011;2193;47.980;7.660;2023-05-31T00:09:39;4.87;;;2.47;;
4359;SDS011;2193;47.980;7.660;2023-05-31T00:12:04;7.30;;;3.10;;
4359;SDS011;2193;47.980;7.660;2023-05-31T00:14:30;8.37;;;2.87;;
4359;SDS011;2193;47.980;7.660;2023-05-31T00:16:55;9.77;;;2.50;;
4359;SDS011;2193;47.980;7.660;2023-05-31T00:19:20;5.40;;;2.33;;
4359;SDS011;2193;47.980;7.660;2023-05-31T00:21:45;7.33;;;2.60;;
4359;SDS011;2193;47.980;7.660;2023-05-31T00:24:11;8.17;;;3.20;;
4359;SDS011;2193;47.980;7.660;2023-05-31T00:26:37;7.13;;;2.93;;
4359;SDS011;2193;47.980;7.660;2023-05-31T00:29:02;5.50;;;3.07;;
4359;SDS011;2193;47.980;7.660;2023-05-31T00:31:27;8.93;;;2.60;;
4359;SDS011;2193;47.980;7.660;2023-05-31T00:33:52;8.33;;;3.30;;
4359;SDS011;2193;47.980;7.660;2023-05-31T00:36:18;7.53;;;2.97;;
4359;SDS011;2193;47.980;7.660;2023-05-31T00:38:43;5.60;;;3.53;;
4359;SDS011;2193;47.980;7.660;2023-05-31T00:41:08;12.73;;;2.70;;
4359;SDS011;2193;47.980;7.660;2023-05-31T00:43:34;4.20;;;2.53;;
4359;SDS011;2193;47.980;7.660;2023-05-31T00:45:59;5.63;;;2.70;;
4359;SDS011;2193;47.980;7.660;2023-05-31T00:48:25;4.50;;;2.83;;
4359;SDS011;2193;47.980;7.660;2023-05-31T00:50:50;5.10;;;2.87;;
4359;SDS011;2193;47.980;7.660;2023-05-31T00:53:15;5.50;;;2.87;;
4359;SDS011;2193;47.980;7.660;2023-05-31T00:55:40;6.90;;;2.70;;
4359;SDS011;2193;47.980;7.660;2023-05-31T00:58:06;8.67;;;2.73;;
4359;SDS011;2193;47.980;7.660;2023-05-31T01:00:31;5.27;;;2.50;;
4359;SDS011;2193;47.980;7.660;2023-05-31T01:02:56;9.80;;;3.00;;
4359;SDS011;2193;47.980;7.660;2023-05-31T01:05:26;6.07;;;2.80;;
4359;SDS011;2193;47.980;7.660;2023-05-31T01:07:51;11.30;;;2.77;;
4359;SDS011;2193;47.980;7.660;2023-05-31T01:10:16;10.83;;;2.57;;
4359;SDS011;2193;47.980;7.660;2023-05-31T01:15:19;5.90;;;3.07;;
4359;SDS011;2193;47.980;7.660;2023-05-31T01:17:57;4.57;;;2.43;;
4359;SDS011;2193;47.980;7.660;2023-05-31T01:20:30;8.00;;;2.70;;
4359;SDS011;2193;47.980;7.660;2023-05-31T01:49:12;6.03;;;2.73;;
4359;SDS011;2193;47.980;7.660;2023-05-31T01:51:37;9.53;;;4.50;;
4359;SDS011;2193;47.980;7.660;2023-05-31T01:54:05;8.37;;;3.30;;
4359;SDS011;2193;47.980;7.660;2023-05-31T01:56:30;7.63;;;3.40;;
4359;SDS011;2193;47.980;7.660;2023-05-31T01:58:56;7.77;;;3.50;;
4359;SDS011;2193;47.980;7.660;2023-05-31T02:01:22;8.57;;;2.73;;
4359;SDS011;2193;47.980;7.660;2023-05-31T02:03:51;6.33;;;3.10;;
4359;SDS011;2193;47.980;7.660;2023-05-31T02:06:16;7.60;;;2.93;;
4359;SDS011;2193;47.980;7.660;2023-05-31T02:08:41;5.80;;;3.23;;
4359;SDS011;2193;47.980;7.660;2023-05-31T02:11:07;4.63;;;2.70;;
4359;SDS011;2193;47.980;7.660;2023-05-31T02:13:32;11.33;;;3.50;;
4359;SDS011;2193;47.980;7.660;2023-05-31T02:15:57;3.07;;;2.50;;
4359;SDS011;2193;47.980;7.660;2023-05-31T02:18:23;7.20;;;3.33;;
4359;SDS011;2193;47.980;7.660;2023-05-31T02:20:51;8.20;;;2.60;;
4359;SDS011;2193;47.980;7.660;2023-05-31T02:23:16;5.10;;;3.00;;
4359;SDS011;2193;47.980;7.660;2023-05-31T02:25:44;10.93;;;2.90;;
4359;SDS011;2193;47.980;7.660;2023-05-31T02:28:09;8.23;;;2.80;;
4359;SDS011;2193;47.980;7.660;2023-05-31T02:30:35;6.47;;;3.30;;
4359;SDS011;2193;47.980;7.660;2023-05-31T02:33:01;5.20;;;2.53;;
4359;SDS011;2193;47.980;7.660;2023-05-31T02:35:27;6.50;;;2.80;;
4359;SDS011;2193;47.980;7.660;2023-05-31T02:37:52;15.93;;;3.10;;
4359;SDS011;2193;47.980;7.660;2023-05-31T02:40:17;4.70;;;2.80;;
4359;SDS011;2193;47.980;7.660;2023-05-31T02:42:43;8.27;;;3.20;;
4359;SDS011;2193;47.980;7.660;2023-05-31T02:45:08;7.63;;;3.20;;
4359;SDS011;2193;47.980;7.660;2023-05-31T02:47:35;4.73;;;2.70;;
4359;SDS011;2193;47.980;7.660;2023-05-31T02:50:01;8.07;;;3.00;;
4359;SDS011;2193;47.980;7.660;2023-05-31T02:52:26;5.23;;;2.93;;
4359;SDS011;2193;47.980;7.660;2023-05-31T02:54:52;10.33;;;3.60;;
4359;SDS011;2193;47.980;7.660;2023-05-31T02:57:17;6.10;;;2.60;;
4359;SDS011;2193;47.980;7.660;2023-05-31T02:59:45;4.77;;;2.40;;
4359;SDS011;2193;47.980;7.660;2023-05-31T03:02:11;11.73;;;3.00;;
4359;SDS011;2193;47.980;7.660;2023-05-31T03:04:36;5.70;;;3.10;;
4359;SDS011;2193;47.980;7.660;2023-05-31T03:07:01;6.20;;;2.50;;
4359;SDS011;2193;47.980;7.660;2023-05-31T03:09:26;4.70;;;2.90;;
4359;SDS011;2193;47.980;7.660;2023-05-31T03:11:52;8.13;;;3.00;;
4359;SDS011;2193;47.980;7.660;2023-05-31T03:14:17;8.37;;;2.77;;
4359;SDS011;2193;47.980;7.660;2023-05-31T03:16:42;7.70;;;2.53;;
4359;SDS011;2193;47.980;7.660;2023-05-31T03:19:07;4.83;;;3.07;;
4359;SDS011;2193;47.980;7.660;2023-05-31T03:21:33;7.33;;;3.07;;
4359;SDS011;2193;47.980;7.660;2023-05-31T03:23:58;10.83;;;3.17;;
4359;SDS011;2193;47.980;7.660;2023-05-31T03:26:23;5.70;;;2.77;;
4359;SDS011;2193;47.980;7.660;2023-05-31T03:28:48;6.17;;;3.13;;
4359;SDS011;2193;47.980;7.660;2023-05-31T03:31:13;6.00;;;2.97;;
4359;SDS011;2193;47.980;7.660;2023-05-31T03:33:39;5.53;;;2.87;;
4359;SDS011;2193;47.980;7.660;2023-05-31T03:36:04;6.03;;;2.77;;
4359;SDS011;2193;47.980;7.660;2023-05-31T03:38:29;14.63;;;3.07;;
4359;SDS011;2193;47.980;7.660;2023-05-31T03:40:55;3.93;;;2.93;;
4359;SDS011;2193;47.980;7.660;2023-05-31T03:43:20;6.63;;;2.90;;
4359;SDS011;2193;47.980;7.660;2023-05-31T03:45:45;4.83;;;2.90;;
4359;SDS011;2193;47.980;7.660;2023-05-31T03:48:10;4.57;;;2.90;;
4359;SDS011;2193;47.980;7.660;2023-05-31T03:50:36;3.97;;;2.70;;
4359;SDS011;2193;47.980;7.660;2023-05-31T03:53:03;8.93;;;3.03;;
4359;SDS011;2193;47.980;7.660;2023-05-31T03:55:28;4.83;;;2.77;;
4359;SDS011;2193;47.980;7.660;2023-05-31T03:57:54;6.53;;;2.60;;
4359;SDS011;2193;47.980;7.660;2023-05-31T04:00:19;7.60;;;2.90;;
4359;SDS011;2193;47.980;7.660;2023-05-31T04:02:44;6.87;;;2.57;;
4359;SDS011;2193;47.980;7.660;2023-05-31T04:05:09;5.03;;;2.90;;
4359;SDS011;2193;47.980;7.660;2023-05-31T04:07:34;6.53;;;2.90;;
4359;SDS011;2193;47.980;7.660;2023-05-31T04:10:00;6.00;;;2.63;;
4359;SDS011;2193;47.980;7.660;2023-05-31T04:12:25;5.80;;;3.00;;
4359;SDS011;2193;47.980;7.660;2023-05-31T04:14:50;10.30;;;3.30;;
4359;SDS011;2193;47.980;7.660;2023-05-31T04:17:16;8.03;;;2.70;;
4359;SDS011;2193;47.980;7.660;2023-05-31T04:19:41;4.43;;;2.70;;
4359;SDS011;2193;47.980;7.660;2023-05-31T04:22:06;5.83;;;2.80;;
4359;SDS011;2193;47.980;7.660;2023-05-31T04:24:31;6.00;;;2.87;;
4359;SDS011;2193;47.980;7.660;2023-05-31T04:26:57;8.63;;;3.10;;
4359;SDS011;2193;47.980;7.660;2023-05-31T04:29:22;7.10;;;2.93;;
4359;SDS011;2193;47.980;7.660;2023-05-31T04:31:50;7.10;;;3.00;;
4359;SDS011;2193;47.980;7.660;2023-05-31T04:34:15;9.10;;;2.97;;
4359;SDS011;2193;47.980;7.660;2023-05-31T04:36:43;5.47;;;2.93;;
4359;SDS011;2193;47.980;7.660;2023-05-31T04:39:09;9.20;;;2.73;;
4359;SDS011;2193;47.980;7.660;2023-05-31T04:41:39;6.53;;;2.67;;
4359;SDS011;2193;47.980;7.660;2023-05-31T04:44:04;10.43;;;2.60;;
4359;SDS011;2193;47.980;7.660;2023-05-31T04:46:29;7.60;;;2.67;;
4359;SDS011;2193;47.980;7.660;2023-05-31T04:48:55;7.83;;;3.10;;
4359;SDS011;2193;47.980;7.660;2023-05-31T04:51:20;9.40;;;2.83;;
4359;SDS011;2193;47.980;7.660;2023-05-31T04:53:45;5.17;;;2.87;;
4359;SDS011;2193;47.980;7.660;2023-05-31T04:56:12;7.67;;;2.90;;
4359;SDS011;2193;47.980;7.660;2023-05-31T04:58:38;7.20;;;2.90;;
4359;SDS011;2193;47.980;7.660;2023-05-31T05:01:03;4.53;;;2.80;;
4359;SDS011;2193;47.980;7.660;2023-05-31T05:03:28;8.13;;;2.83;;
4359;SDS011;2193;47.980;7.660;2023-05-31T05:05:55;7.90;;;2.90;;
4359;SDS011;2193;47.980;7.660;2023-05-31T05:08:21;7.63;;;3.00;;
4359;SDS011;2193;47.980;7.660;2023-05-31T05:10:47;7.60;;;2.90;;
4359;SDS011;2193;47.980;7.660;2023-05-31T05:13:12;7.20;;;3.40;;
4359;SDS011;2193;47.980;7.660;2023-05-31T05:15:37;6.13;;;2.63;;
4359;SDS011;2193;47.980;7.660;2023-05-31T05:18:02;6.73;;;2.57;;
4359;SDS011;2193;47.980;7.660;2023-05-31T05:20:28;5.47;;;2.60;;
4359;SDS011;2193;47.980;7.660;2023-05-31T05:22:53;6.80;;;3.03;;
4359;SDS011;2193;47.980;7.660;2023-05-31T05:25:18;6.17;;;2.63;;
4359;SDS011;2193;47.980;7.660;2023-05-31T05:27:45;6.00;;;3.10;;
4359;SDS011;2193;47.980;7.660;2023-05-31T05:30:10;3.23;;;2.33;;
4359;SDS011;2193;47.980;7.660;2023-05-31T05:32:36;4.47;;;3.10;;
4359;SDS011;2193;47.980;7.660;2023-05-31T05:35:01;4.63;;;2.53;;
4359;SDS011;2193;47.980;7.660;2023-05-31T05:37:26;4.77;;;2.60;;
4359;SDS011;2193;47.980;7.660;2023-05-31T05:39:51;10.40;;;2.93;;
4359;SDS011;2193;47.980;7.660;2023-05-31T05:42:16;7.17;;;2.77;;
4359;SDS011;2193;47.980;7.660;2023-05-31T05:44:42;6.83;;;3.20;;
4359;SDS011;2193;47.980;7.660;2023-05-31T05:47:07;6.83;;;2.90;;
4359;SDS011;2193;47.980;7.660;2023-05-31T05:49:32;5.13;;;3.17;;
4359;SDS011;2193;47.980;7.660;2023-05-31T05:51:58;4.43;;;3.10;;
4359;SDS011;2193;47.980;7.660;2023-05-31T05:54:24;9.57;;;2.77;;
4359;SDS011;2193;47.980;7.660;2023-05-31T05:56:49;7.07;;;3.10;;
4359;SDS011;2193;47.980;7.660;2023-05-31T05:59:14;5.07;;;3.47;;
4359;SDS011;2193;47.980;7.660;2023-05-31T06:01:39;4.77;;;2.90;;
4359;SDS011;2193;47.980;7.660;2023-05-31T06:04:05;4.90;;;2.80;;
4359;SDS011;2193;47.980;7.660;2023-05-31T06:06:31;5.47;;;3.17;;
4359;SDS011;2193;47.980;7.660;2023-05-31T06:08:57;5.53;;;2.93;;
4359;SDS011;2193;47.980;7.660;2023-05-31T06:11:22;5.67;;;3.20;;
4359;SDS011;2193;47.980;7.660;2023-05-31T06:13:47;3.60;;;2.63;;
4359;SDS011;2193;47.980;7.660;2023-05-31T06:16:13;5.00;;;2.80;;
4359;SDS011;2193;47.980;7.660;2023-05-31T06:18:38;5.93;;;3.30;;
4359;SDS011;2193;47.980;7.660;2023-05-31T06:21:03;7.57;;;3.20;;
4359;SDS011;2193;47.980;7.660;2023-05-31T06:23:28;6.70;;;2.97;;
4359;SDS011;2193;47.980;7.660;2023-05-31T06:25:54;7.03;;;3.00;;
4359;SDS011;2193;47.980;7.660;2023-05-31T06:28:19;6.57;;;3.33;;
4359;SDS011;2193;47.980;7.660;2023-05-31T06:30:45;6.40;;;2.93;;
4359;SDS011;2193;47.980;7.660;2023-05-31T06:33:10;5.83;;;2.90;;
4359;SDS011;2193;47.980;7.660;2023-05-31T06:35:35;12.23;;;3.30;;
4359;SDS011;2193;47.980;7.660;2023-05-31T06:38:00;6.00;;;3.57;;
4359;SDS011;2193;47.980;7.660;2023-05-31T06:40:29;19.93;;;3.17;;
4359;SDS011;2193;47.980;7.660;2023-05-31T06:42:54;6.37;;;2.97;;
4359;SDS011;2193;47.980;7.660;2023-05-31T06:45:19;7.53;;;3.20;;
4359;SDS011;2193;47.980;7.660;2023-05-31T06:47:44;18.37;;;3.30;;
4359;SDS011;2193;47.980;7.660;2023-05-31T06:50:10;10.37;;;3.80;;
4359;SDS011;2193;47.980;7.660;2023-05-31T06:52:36;17.00;;;3.40;;
4359;SDS011;2193;47.980;7.660;2023-05-31T06:55:01;8.17;;;2.90;;
4359;SDS011;2193;47.980;7.660;2023-05-31T06:57:27;8.63;;;3.33;;
4359;SDS011;2193;47.980;7.660;2023-05-31T06:59:52;7.00;;;3.13;;
4359;SDS011;2193;47.980;7.660;2023-05-31T07:02:17;9.20;;;3.10;;
4359;SDS011;2193;47.980;7.660;2023-05-31T07:04:42;12.73;;;3.40;;
4359;SDS011;2193;47.980;7.660;2023-05-31T07:07:07;8.97;;;3.37;;
4359;SDS011;2193;47.980;7.660;2023-05-31T07:09:34;9.83;;;3.20;;
4359;SDS011;2193;47.980;7.660;2023-05-31T07:11:59;3.83;;;2.90;;
4359;SDS011;2193;47.980;7.660;2023-05-31T07:14:25;15.40;;;3.03;;
4359;SDS011;2193;47.980;7.660;2023-05-31T07:16:51;7.43;;;3.63;;
4359;SDS011;2193;47.980;7.660;2023-05-31T07:19:16;10.30;;;3.30;;
4359;SDS011;2193;47.980;7.660;2023-05-31T07:21:41;5.87;;;3.30;;
4359;SDS011;2193;47.980;7.660;2023-05-31T07:24:06;10.47;;;3.00;;
4359;SDS011;2193;47.980;7.660;2023-05-31T07:26:31;7.47;;;3.10;;
4359;SDS011;2193;47.980;7.660;2023-05-31T07:28:57;7.50;;;3.40;;
4359;SDS011;2193;47.980;7.660;2023-05-31T07:31:22;6.47;;;3.10;;
4359;SDS011;2193;47.980;7.660;2023-05-31T07:33:48;10.27;;;3.83;;
4359;SDS011;2193;47.980;7.660;2023-05-31T07:36:13;10.73;;;3.30;;
4359;SDS011;2193;47.980;7.660;2023-05-31T07:38:38;6.10;;;3.20;;
4359;SDS011;2193;47.980;7.660;2023-05-31T07:41:03;4.60;;;3.37;;
4359;SDS011;2193;47.980;7.660;2023-05-31T07:43:29;7.07;;;3.57;;
4359;SDS011;2193;47.980;7.660;2023-05-31T07:45:54;16.53;;;3.47;;
4359;SDS011;2193;47.980;7.660;2023-05-31T07:48:20;6.00;;;3.43;;
4359;SDS011;2193;47.980;7.660;2023-05-31T07:50:46;7.10;;;3.27;;
4359;SDS011;2193;47.980;7.660;2023-05-31T07:53:11;6.00;;;3.57;;
4359;SDS011;2193;47.980;7.660;2023-05-31T07:55:37;5.17;;;3.17;;
4359;SDS011;2193;47.980;7.660;2023-05-31T07:58:02;6.83;;;3.47;;
4359;SDS011;2193;47.980;7.660;2023-05-31T08:00:28;8.00;;;3.50;;
4359;SDS011;2193;47.980;7.660;2023-05-31T08:02:53;5.73;;;3.70;;
4359;SDS011;2193;47.980;7.660;2023-05-31T08:05:18;5.03;;;3.40;;
4359;SDS011;2193;47.980;7.660;2023-05-31T08:07:44;9.43;;;3.67;;
4359;SDS011;2193;47.980;7.660;2023-05-31T08:10:09;6.87;;;3.53;;
4359;SDS011;2193;47.980;7.660;2023-05-31T08:12:36;6.90;;;3.47;;
4359;SDS011;2193;47.980;7.660;2023-05-31T08:15:01;11.37;;;3.93;;
4359;SDS011;2193;47.980;7.660;2023-05-31T08:17:26;7.90;;;3.70;;
4359;SDS011;2193;47.980;7.660;2023-05-31T08:19:52;5.17;;;3.57;;
4359;SDS011;2193;47.980;7.660;2023-05-31T08:22:17;6.93;;;3.80;;
4359;SDS011;2193;47.980;7.660;2023-05-31T08:24:42;8.50;;;3.50;;
4359;SDS011;2193;47.980;7.660;2023-05-31T08:27:08;6.50;;;3.53;;
4359;SDS011;2193;47.980;7.660;2023-05-31T08:29:33;7.90;;;3.87;;
4359;SDS011;2193;47.980;7.660;2023-05-31T08:31:59;6.80;;;3.40;;
4359;SDS011;2193;47.980;7.660;2023-05-31T08:34:24;9.50;;;3.70;;
4359;SDS011;2193;47.980;7.660;2023-05-31T08:36:49;11.73;;;4.13;;
4359;SDS011;2193;47.980;7.660;2023-05-31T08:39:15;9.10;;;3.43;;
4359;SDS011;2193;47.980;7.660;2023-05-31T08:41:47;11.80;;;4.00;;
4359;SDS011;2193;47.980;7.660;2023-05-31T08:44:14;8.70;;;3.67;;
4359;SDS011;2193;47.980;7.660;2023-05-31T08:46:39;5.00;;;3.27;;
4359;SDS011;2193;47.980;7.660;2023-05-31T08:49:08;10.47;;;3.87;;
4359;SDS011;2193;47.980;7.660;2023-05-31T08:51:35;8.80;;;3.50;;
4359;SDS011;2193;47.980;7.660;2023-05-31T08:54:01;12.43;;;4.13;;
4359;SDS011;2193;47.980;7.660;2023-05-31T08:56:27;9.17;;;3.93;;
4359;SDS011;2193;47.980;7.660;2023-05-31T08:58:53;9.73;;;3.77;;
4359;SDS011;2193;47.980;7.660;2023-05-31T09:01:18;4.53;;;3.43;;
4359;SDS011;2193;47.980;7.660;2023-05-31T09:03:44;8.27;;;3.50;;
4359;SDS011;2193;47.980;7.660;2023-05-31T09:06:10;5.30;;;3.10;;
4359;SDS011;2193;47.980;7.660;2023-05-31T09:08:35;13.50;;;3.50;;
4359;SDS011;2193;47.980;7.660;2023-05-31T09:11:01;7.77;;;3.60;;
4359;SDS011;2193;47.980;7.660;2023-05-31T09:13:26;4.73;;;3.40;;
4359;SDS011;2193;47.980;7.660;2023-05-31T09:15:51;6.50;;;3.37;;
4359;SDS011;2193;47.980;7.660;2023-05-31T09:18:20;5.10;;;3.50;;
4359;SDS011;2193;47.980;7.660;2023-05-31T09:20:46;8.20;;;3.47;;
4359;SDS011;2193;47.980;7.660;2023-05-31T09:23:12;5.03;;;2.73;;
4359;SDS011;2193;47.980;7.660;2023-05-31T09:25:47;7.00;;;3.27;;
4359;SDS011;2193;47.980;7.660;2023-05-31T09:28:13;12.17;;;2.93;;
4359;SDS011;2193;47.980;7.660;2023-05-31T09:30:38;10.73;;;3.30;;
4359;SDS011;2193;47.980;7.660;2023-05-31T09:33:03;17.40;;;5.43;;
4359;SDS011;2193;47.980;7.660;2023-05-31T09:35:29;10.70;;;3.50;;
4359;SDS011;2193;47.980;7.660;2023-05-31T09:37:54;11.40;;;3.60;;
4359;SDS011;2193;47.980;7.660;2023-05-31T09:40:22;5.70;;;3.20;;
4359;SDS011;2193;47.980;7.660;2023-05-31T09:42:48;6.27;;;3.30;;
4359;SDS011;2193;47.980;7.660;2023-05-31T09:45:14;8.63;;;3.97;;
4359;SDS011;2193;47.980;7.660;2023-05-31T09:47:39;8.50;;;3.53;;
4359;SDS011;2193;47.980;7.660;2023-05-31T09:50:04;7.07;;;3.47;;
4359;SDS011;2193;47.980;7.660;2023-05-31T09:52:33;7.27;;;4.17;;
4359;SDS011;2193;47.980;7.660;2023-05-31T09:55:06;8.43;;;3.87;;
4359;SDS011;2193;47.980;7.660;2023-05-31T09:57:32;6.03;;;3.60;;
4359;SDS011;2193;47.980;7.660;2023-05-31T09:59:58;8.17;;;3.43;;
4359;SDS011;2193;47.980;7.660;2023-05-31T10:02:30;9.63;;;3.30;;
4359;SDS011;2193;47.980;7.660;2023-05-31T10:04:55;12.87;;;3.80;;
4359;SDS011;2193;47.980;7.660;2023-05-31T10:07:23;7.93;;;3.60;;
4359;SDS011;2193;47.980;7.660;2023-05-31T10:09:49;9.80;;;4.00;;
4359;SDS011;2193;47.980;7.660;2023-05-31T10:12:15;5.83;;;3.83;;
4359;SDS011;2193;47.980;7.660;2023-05-31T10:14:41;6.00;;;4.30;;
4359;SDS011;2193;47.980;7.660;2023-05-31T10:17:10;16.27;;;4.30;;
4359;SDS011;2193;47.980;7.660;2023-05-31T10:19:40;8.33;;;3.90;;
4359;SDS011;2193;47.980;7.660;2023-05-31T10:22:07;10.80;;;4.13;;
4359;SDS011;2193;47.980;7.660;2023-05-31T10:24:45;7.43;;;3.60;;
4359;SDS011;2193;47.980;7.660;2023-05-31T10:27:29;6.47;;;3.67;;
4359;SDS011;2193;47.980;7.660;2023-05-31T10:29:56;4.50;;;3.90;;
4359;SDS011;2193;47.980;7.660;2023-05-31T10:32:29;8.57;;;3.80;;
4359;SDS011;2193;47.980;7.660;2023-05-31T10:34:57;5.10;;;3.90;;
4359;SDS011;2193;47.980;7.660;2023-05-31T10:37:22;8.40;;;4.17;;
4359;SDS011;2193;47.980;7.660;2023-05-31T10:39:53;5.97;;;3.67;;
4359;SDS011;2193;47.980;7.660;2023-05-31T10:43:23;8.37;;;3.87;;
4359;SDS011;2193;47.980;7.660;2023-05-31T10:45:15;6.27;;;3.80;;
4359;SDS011;2193;47.980;7.660;2023-05-31T10:48:06;12.90;;;3.90;;
4359;SDS011;2193;47.980;7.660;2023-05-31T10:50:27;6.53;;;3.63;;
4359;SDS011;2193;47.980;7.660;2023-05-31T10:53:07;5.90;;;3.57;;
4359;SDS011;2193;47.980;7.660;2023-05-31T10:55:33;5.50;;;3.80;;
4359;SDS011;2193;47.980;7.660;2023-05-31T10:58:04;6.33;;;3.90;;
4359;SDS011;2193;47.980;7.660;2023-05-31T11:00:30;5.57;;;3.83;;
4359;SDS011;2193;47.980;7.660;2023-05-31T11:02:56;5.27;;;3.77;;
4359;SDS011;2193;47.980;7.660;2023-05-31T11:05:23;7.03;;;4.10;;
4359;SDS011;2193;47.980;7.660;2023-05-31T11:07:50;23.77;;;3.60;;
4359;SDS011;2193;47.980;7.660;2023-05-31T11:10:25;10.80;;;4.07;;
4359;SDS011;2193;47.980;7.660;2023-05-31T11:12:51;6.17;;;3.40;;
4359;SDS011;2193;47.980;7.660;2023-05-31T11:15:17;5.83;;;3.90;;
4359;SDS011;2193;47.980;7.660;2023-05-31T11:18:00;9.93;;;4.20;;
4359;SDS011;2193;47.980;7.660;2023-05-31T11:20:25;8.13;;;3.93;;
4359;SDS011;2193;47.980;7.660;2023-05-31T11:25:35;8.00;;;4.10;;
4359;SDS011;2193;47.980;7.660;2023-05-31T11:28:06;7.47;;;3.87;;
4359;SDS011;2193;47.980;7.660;2023-05-31T11:30:35;7.80;;;3.50;;
4359;SDS011;2193;47.980;7.660;2023-05-31T11:33:00;9.00;;;4.10;;
4359;SDS011;2193;47.980;7.660;2023-05-31T11:35:25;13.30;;;4.30;;
4359;SDS011;2193;47.980;7.660;2023-05-31T11:37:58;6.43;;;3.87;;
4359;SDS011;2193;47.980;7.660;2023-05-31T11:40:23;6.03;;;4.00;;
4359;SDS011;2193;47.980;7.660;2023-05-31T11:42:49;10.20;;;4.20;;
4359;SDS011;2193;47.980;7.660;2023-05-31T11:45:15;4.70;;;3.30;;
4359;SDS011;2193;47.980;7.660;2023-05-31T11:50:13;5.40;;;3.90;;
4359;SDS011;2193;47.980;7.660;2023-05-31T11:52:41;15.30;;;4.33;;
4359;SDS011;2193;47.980;7.660;2023-05-31T11:55:06;7.87;;;4.00;;
4359;SDS011;2193;47.980;7.660;2023-05-31T11:57:39;7.60;;;4.03;;
4359;SDS011;2193;47.980;7.660;2023-05-31T12:00:06;11.30;;;4.27;;
4359;SDS011;2193;47.980;7.660;2023-05-31T12:02:40;12.00;;;3.87;;
4359;SDS011;2193;47.980;7.660;2023-05-31T12:05:05;8.23;;;3.87;;
4359;SDS011;2193;47.980;7.660;2023-05-31T12:07:31;5.40;;;3.67;;
4359;SDS011;2193;47.980;7.660;2023-05-31T12:09:56;7.73;;;4.03;;
4359;SDS011;2193;47.980;7.660;2023-05-31T12:12:22;6.13;;;4.03;;
4359;SDS011;2193;47.980;7.660;2023-05-31T12:14:51;7.80;;;3.70;;
4359;SDS011;2193;47.980;7.660;2023-05-31T12:17:19;7.20;;;3.80;;
4359;SDS011;2193;47.980;7.660;2023-05-31T12:19:47;8.37;;;3.47;;
4359;SDS011;2193;47.980;7.660;2023-05-31T12:22:12;5.63;;;4.03;;
4359;SDS011;2193;47.980;7.660;2023-05-31T12:24:37;7.90;;;3.43;;
4359;SDS011;2193;47.980;7.660;2023-05-31T12:27:12;9.17;;;3.37;;
4359;SDS011;2193;47.980;7.660;2023-05-31T12:29:39;4.90;;;3.70;;
4359;SDS011;2193;47.980;7.660;2023-05-31T12:32:04;6.90;;;3.50;;
4359;SDS011;2193;47.980;7.660;2023-05-31T12:34:32;6.30;;;3.70;;
4359;SDS011;2193;47.980;7.660;2023-05-31T12:36:58;11.00;;;3.77;;
4359;SDS011;2193;47.980;7.660;2023-05-31T12:39:28;5.27;;;3.90;;
4359;SDS011;2193;47.980;7.660;2023-05-31T12:41:53;5.67;;;4.07;;
4359;SDS011;2193;47.980;7.660;2023-05-31T12:44:19;8.53;;;3.40;;
4359;SDS011;2193;47.980;7.660;2023-05-31T12:46:45;8.03;;;3.43;;
4359;SDS011;2193;47.980;7.660;2023-05-31T12:49:18;7.63;;;3.80;;
4359;SDS011;2193;47.980;7.660;2023-05-31T12:51:43;5.60;;;3.27;;
4359;SDS011;2193;47.980;7.660;2023-05-31T12:54:12;7.57;;;3.43;;
4359;SDS011;2193;47.980;7.660;2023-05-31T12:56:38;7.50;;;3.53;;
4359;SDS011;2193;47.980;7.660;2023-05-31T12:59:03;4.80;;;3.33;;
4359;SDS011;2193;47.980;7.660;2023-05-31T13:01:28;13.90;;;4.00;;
4359;SDS011;2193;47.980;7.660;2023-05-31T13:03:54;7.80;;;3.57;;
4359;SDS011;2193;47.980;7.660;2023-05-31T13:06:19;7.60;;;3.73;;
4359;SDS011;2193;47.980;7.660;2023-05-31T13:08:44;5.73;;;3.60;;
4359;SDS011;2193;47.980;7.660;2023-05-31T13:11:09;3.57;;;3.27;;
4359;SDS011;2193;47.980;7.660;2023-05-31T13:13:35;9.47;;;2.90;;
4359;SDS011;2193;47.980;7.660;2023-05-31T13:16:00;5.10;;;3.10;;
4359;SDS011;2193;47.980;7.660;2023-05-31T13:18:25;6.00;;;3.33;;
4359;SDS011;2193;47.980;7.660;2023-05-31T13:20:51;12.90;;;3.60;;
4359;SDS011;2193;47.980;7.660;2023-05-31T13:23:16;6.40;;;4.10;;
4359;SDS011;2193;47.980;7.660;2023-05-31T13:25:41;6.80;;;2.53;;
4359;SDS011;2193;47.980;7.660;2023-05-31T13:28:06;4.93;;;3.10;;
4359;SDS011;2193;47.980;7.660;2023-05-31T13:30:32;6.97;;;3.33;;
4359;SDS011;2193;47.980;7.660;2023-05-31T13:32:57;7.53;;;3.50;;
4359;SDS011;2193;47.980;7.660;2023-05-31T13:35:22;8.70;;;3.50;;
4359;SDS011;2193;47.980;7.660;2023-05-31T13:37:48;5.97;;;2.90;;
4359;SDS011;2193;47.980;7.660;2023-05-31T13:40:13;10.33;;;3.53;;
4359;SDS011;2193;47.980;7.660;2023-05-31T13:42:38;8.17;;;3.47;;
4359;SDS011;2193;47.980;7.660;2023-05-31T13:45:03;7.50;;;3.20;;
4359;SDS011;2193;47.980;7.660;2023-05-31T13:47:29;6.73;;;3.00;;
4359;SDS011;2193;47.980;7.660;2023-05-31T13:49:55;8.47;;;3.13;;
4359;SDS011;2193;47.980;7.660;2023-05-31T13:52:20;5.60;;;3.27;;
4359;SDS011;2193;47.980;7.660;2023-05-31T13:54:45;8.07;;;3.30;;
4359;SDS011;2193;47.980;7.660;2023-05-31T13:57:10;6.53;;;3.40;;
4359;SDS011;2193;47.980;7.660;2023-05-31T13:59:35;5.90;;;3.50;;
4359;SDS011;2193;47.980;7.660;2023-05-31T14:02:01;6.67;;;3.10;;
4359;SDS011;2193;47.980;7.660;2023-05-31T14:04:26;10.93;;;3.47;;
4359;SDS011;2193;47.980;7.660;2023-05-31T14:06:51;4.00;;;3.23;;
4359;SDS011;2193;47.980;7.660;2023-05-31T14:09:17;5.97;;;3.20;;
4359;SDS011;2193;47.980;7.660;2023-05-31T14:11:43;9.00;;;3.30;;
4359;SDS011;2193;47.980;7.660;2023-05-31T14:14:09;5.17;;;2.93;;
4359;SDS011;2193;47.980;7.660;2023-05-31T14:16:34;4.30;;;3.10;;
4359;SDS011;2193;47.980;7.660;2023-05-31T14:18:59;10.10;;;3.30;;
4359;SDS011;2193;47.980;7.660;2023-05-31T14:21:25;5.83;;;3.00;;
4359;SDS011;2193;47.980;7.660;2023-05-31T14:23:51;6.53;;;3.37;;
4359;SDS011;2193;47.980;7.660;2023-05-31T14:26:16;4.13;;;3.17;;
4359;SDS011;2193;47.980;7.660;2023-05-31T14:28:41;4.40;;;2.37;;
4359;SDS011;2193;47.980;7.660;2023-05-31T14:31:06;13.73;;;2.80;;
4359;SDS011;2193;47.980;7.660;2023-05-31T14:33:31;3.37;;;2.70;;
4359;SDS011;2193;47.980;7.660;2023-05-31T14:35:56;4.90;;;2.67;;
4359;SDS011;2193;47.980;7.660;2023-05-31T14:38:22;8.53;;;3.30;;
4359;SDS011;2193;47.980;7.660;2023-05-31T14:40:47;6.70;;;3.13;;
4359;SDS011;2193;47.980;7.660;2023-05-31T14:43:12;5.20;;;2.60;;
4359;SDS011;2193;47.980;7.660;2023-05-31T14:45:37;6.93;;;2.80;;
4359;SDS011;2193;47.980;7.660;2023-05-31T14:48:02;4.80;;;2.90;;
4359;SDS011;2193;47.980;7.660;2023-05-31T14:50:28;8.70;;;2.97;;
4359;SDS011;2193;47.980;7.660;2023-05-31T14:52:53;12.73;;;3.10;;
4359;SDS011;2193;47.980;7.660;2023-05-31T14:55:19;5.43;;;3.03;;
4359;SDS011;2193;47.980;7.660;2023-05-31T14:57:45;4.30;;;2.80;;
4359;SDS011;2193;47.980;7.660;2023-05-31T15:00:10;7.93;;;3.33;;
4359;SDS011;2193;47.980;7.660;2023-05-31T15:02:37;4.13;;;3.10;;
4359;SDS011;2193;47.980;7.660;2023-05-31T15:05:02;4.43;;;2.60;;
4359;SDS011;2193;47.980;7.660;2023-05-31T15:07:27;10.30;;;3.40;;
4359;SDS011;2193;47.980;7.660;2023-05-31T15:09:52;3.90;;;2.63;;
4359;SDS011;2193;47.980;7.660;2023-05-31T15:12:18;6.60;;;2.80;;
4359;SDS011;2193;47.980;7.660;2023-05-31T15:14:43;18.33;;;3.73;;
4359;SDS011;2193;47.980;7.660;2023-05-31T15:17:08;6.43;;;3.10;;
4359;SDS011;2193;47.980;7.660;2023-05-31T15:19:33;4.73;;;3.20;;
4359;SDS011;2193;47.980;7.660;2023-05-31T15:21:58;9.30;;;3.00;;
4359;SDS011;2193;47.980;7.660;2023-05-31T15:24:24;7.43;;;3.40;;
4359;SDS011;2193;47.980;7.660;2023-05-31T15:26:49;8.10;;;3.13;;
4359;SDS011;2193;47.980;7.660;2023-05-31T15:29:14;7.57;;;3.20;;
4359;SDS011;2193;47.980;7.660;2023-05-31T15:31:39;6.37;;;3.13;;
4359;SDS011;2193;47.980;7.660;2023-05-31T15:34:05;9.33;;;3.40;;
4359;SDS011;2193;47.980;7.660;2023-05-31T15:36:30;5.43;;;2.47;;
4359;SDS011;2193;47.980;7.660;2023-05-31T15:38:58;3.73;;;2.83;;
4359;SDS011;2193;47.980;7.660;2023-05-31T15:41:23;11.70;;;3.10;;